createdAt,value
2023-03-05T00:01:31.065Z,11.18
2023-03-05T00:06:38.100Z,7.85
2023-03-05T00:11:45.362Z,9.93
2023-03-05T00:16:53.884Z,8.75
2023-03-05T00:22:00.526Z,10.30
2023-03-05T00:27:07.359Z,15.82
2023-03-05T00:32:15.547Z,11.93
2023-03-05T00:37:23.169Z,14.57
2023-03-05T00:42:30.070Z,12.00
2023-03-05T00:47:38.532Z,13.40
2023-03-05T00:52:45.216Z,13.55
2023-03-05T00:57:51.955Z,11.98
2023-03-05T01:02:59.993Z,13.93
2023-03-05T01:08:08.433Z,12.57
2023-03-05T01:13:15.231Z,11.13
2023-03-05T01:18:24.258Z,12.63
2023-03-05T01:28:39.443Z,17.33
2023-03-05T01:33:48.289Z,12.85
2023-03-05T01:38:55.352Z,11.80
2023-03-05T01:44:02.936Z,11.30
2023-03-05T01:49:26.359Z,10.52
2023-03-05T01:54:38.808Z,14.68
2023-03-05T01:59:49.349Z,14.63
2023-03-05T02:05:00.953Z,14.68
2023-03-05T02:10:19.610Z,8.15
2023-03-05T02:15:26.357Z,7.15
2023-03-05T02:20:46.957Z,8.55
2023-03-05T02:25:55.998Z,7.35
2023-03-05T02:31:02.628Z,15.50
2023-03-05T02:36:12.342Z,11.07
2023-03-05T02:41:20.421Z,8.25
2023-03-05T02:46:28.903Z,10.48
2023-03-05T02:51:35.697Z,12.70
2023-03-05T02:56:44.075Z,10.40
2023-03-05T03:01:51.050Z,11.30
2023-03-05T03:06:57.702Z,11.88
2023-03-05T03:12:08.127Z,10.77
2023-03-05T03:17:19.602Z,19.65
2023-03-05T03:22:26.060Z,10.15
2023-03-05T03:27:34.430Z,9.73
2023-03-05T03:32:41.025Z,11.98
2023-03-05T03:37:47.737Z,14.50
2023-03-05T03:42:56.395Z,11.98
2023-03-05T03:48:03.040Z,15.75
2023-03-05T03:53:10.026Z,14.65
2023-03-05T03:58:18.024Z,12.98
2023-03-05T04:03:24.506Z,15.60
2023-03-05T04:08:31.246Z,18.45
2023-03-05T04:13:39.571Z,17.70
2023-03-05T04:18:46.203Z,14.53
2023-03-05T04:23:52.697Z,16.25
2023-03-05T04:29:00.908Z,19.25
2023-03-05T04:34:07.505Z,9.52
2023-03-05T04:39:14.095Z,18.02
2023-03-05T04:44:23.605Z,11.85
2023-03-05T04:49:31.060Z,16.60
2023-03-05T04:54:37.949Z,14.20
2023-03-05T04:59:46.239Z,14.88
2023-03-05T05:04:57.418Z,13.05
2023-03-05T05:10:04.281Z,14.63
2023-03-05T05:15:15.611Z,16.00
2023-03-05T05:20:22.604Z,16.98
2023-03-05T05:25:29.577Z,17.23
2023-03-05T05:30:37.574Z,19.48
2023-03-05T05:35:44.041Z,13.13
2023-03-05T05:40:50.846Z,18.55
2023-03-05T05:46:02.775Z,14.93
2023-03-05T05:51:10.812Z,13.57
2023-03-05T05:56:18.796Z,11.33
2023-03-05T06:01:30.226Z,16.57
2023-03-05T06:06:41.033Z,13.32
2023-03-05T06:11:47.657Z,15.82
2023-03-05T06:16:55.798Z,9.15
2023-03-05T06:22:02.304Z,12.20
2023-03-05T06:27:08.997Z,13.95
2023-03-05T06:32:17.240Z,14.80
2023-03-05T06:37:24.509Z,13.23
2023-03-05T06:42:32.590Z,17.95
2023-03-05T06:47:40.748Z,12.32
2023-03-05T06:52:50.346Z,6.87
2023-03-05T06:57:56.856Z,14.25
2023-03-05T07:03:05.058Z,13.77
2023-03-05T07:08:11.872Z,10.18
2023-03-05T07:13:18.708Z,11.05
2023-03-05T07:18:26.993Z,11.20
2023-03-05T07:23:33.534Z,16.63
2023-03-05T07:28:40.173Z,12.90
2023-03-05T07:33:48.762Z,9.63
2023-03-05T07:38:55.421Z,14.32
2023-03-05T07:44:04.289Z,8.95
2023-03-05T07:49:12.273Z,9.68
2023-03-05T07:54:18.970Z,10.80
2023-03-05T07:59:29.036Z,14.30
2023-03-05T08:04:37.272Z,11.57
2023-03-05T08:09:44.501Z,10.20
2023-03-05T08:14:51.820Z,11.23
2023-03-05T08:20:00.639Z,11.73
2023-03-05T08:25:09.513Z,11.23
2023-03-05T08:35:26.005Z,11.88
2023-03-05T08:40:32.546Z,14.05
2023-03-05T08:45:40.511Z,17.02
2023-03-05T08:50:49.436Z,11.80
2023-03-05T09:01:04.944Z,14.45
2023-03-05T09:06:14.303Z,13.37
2023-03-05T09:11:21.057Z,12.57
2023-03-05T09:16:27.837Z,18.38
2023-03-05T09:21:36.449Z,13.13
2023-03-05T09:26:43.037Z,10.63
2023-03-05T09:31:53.604Z,14.60
2023-03-05T09:37:02.311Z,11.95
2023-03-05T09:42:30.341Z,9.82
2023-03-05T09:47:53.978Z,8.70
2023-03-05T09:53:09.856Z,9.73
2023-03-05T09:58:20.099Z,12.63
2023-03-05T10:03:31.724Z,10.85
2023-03-05T10:08:53.958Z,11.57
2023-03-05T10:14:00.767Z,10.18
2023-03-05T10:19:13.468Z,14.63
2023-03-05T10:24:32.987Z,14.55
2023-03-05T10:29:59.989Z,12.73
2023-03-05T10:35:53.921Z,9.88
2023-03-05T10:41:09.589Z,11.98
2023-03-05T10:46:20.830Z,7.97
2023-03-05T10:51:36.480Z,6.72
2023-03-05T10:56:46.380Z,8.32
2023-03-05T11:02:06.518Z,10.57
2023-03-05T11:07:40.340Z,9.20
2023-03-05T11:12:50.534Z,11.10
2023-03-05T11:18:24.539Z,7.95
2023-03-05T11:23:32.223Z,8.38
2023-03-05T11:28:43.712Z,9.07
2023-03-05T11:34:01.421Z,9.13
2023-03-05T11:39:17.845Z,5.03
2023-03-05T11:44:33.021Z,7.13
2023-03-05T11:49:47.307Z,8.32
2023-03-05T11:55:05.542Z,8.32
2023-03-05T12:00:28.568Z,7.70
2023-03-05T12:05:39.873Z,6.60
2023-03-05T12:10:48.245Z,6.68
2023-03-05T12:16:11.829Z,13.27
2023-03-05T12:21:33.256Z,17.15
2023-03-05T12:27:15.052Z,16.20
2023-03-05T12:33:03.608Z,14.40
2023-03-05T12:38:34.880Z,8.60
2023-03-05T12:43:43.350Z,12.40
2023-03-05T12:48:56.217Z,11.50
2023-03-05T12:54:36.462Z,7.72
2023-03-05T12:59:50.537Z,12.30
2023-03-05T13:05:06.136Z,6.53
2023-03-05T13:10:27.097Z,7.18
2023-03-05T13:15:37.532Z,6.50
2023-03-05T13:20:51.305Z,7.80
2023-03-05T13:26:15.657Z,4.95
2023-03-05T13:31:25.822Z,7.00
2023-03-05T13:36:35.348Z,8.77
2023-03-05T13:41:44.980Z,9.27
2023-03-05T13:46:53.608Z,6.13
2023-03-05T13:52:05.893Z,5.30
2023-03-05T13:57:38.307Z,9.95
2023-03-05T14:02:47.180Z,7.03
2023-03-05T14:07:58.191Z,9.55
2023-03-05T14:13:20.310Z,8.00
2023-03-05T14:18:29.670Z,9.35
2023-03-05T14:23:48.005Z,18.83
2023-03-05T14:28:59.844Z,6.35
2023-03-05T14:34:11.252Z,8.52
2023-03-05T14:39:46.179Z,10.23
2023-03-05T14:44:56.552Z,9.25
2023-03-05T14:50:06.309Z,10.00
2023-03-05T14:55:23.678Z,7.05
2023-03-05T15:00:34.307Z,30.00
2023-03-05T15:05:46.209Z,13.43
2023-03-05T15:10:59.748Z,10.13
2023-03-05T15:16:12.788Z,8.45
2023-03-05T15:21:26.001Z,10.23
2023-03-05T15:26:40.053Z,8.45
2023-03-05T15:31:49.532Z,7.97
2023-03-05T15:36:58.939Z,10.32
2023-03-05T15:42:11.051Z,12.38
2023-03-05T15:47:20.532Z,8.75
2023-03-05T15:52:29.766Z,13.43
2023-03-05T15:57:46.684Z,9.43
2023-03-05T16:02:56.988Z,10.15
2023-03-05T16:08:07.763Z,10.68
2023-03-05T16:13:21.817Z,9.68
2023-03-05T16:18:32.290Z,9.02
2023-03-05T16:23:43.766Z,15.57
2023-03-05T16:28:56.395Z,16.33
2023-03-05T16:34:07.914Z,12.00
2023-03-05T16:39:21.781Z,12.75
2023-03-05T16:44:33.825Z,11.40
2023-03-05T16:49:43.534Z,15.77
2023-03-05T16:54:54.681Z,15.88
2023-03-05T17:00:10.048Z,13.07
2023-03-05T17:05:20.076Z,9.88
2023-03-05T17:10:29.838Z,9.10
2023-03-05T17:15:46.407Z,16.23
2023-03-05T17:20:57.926Z,15.20
2023-03-05T17:26:10.864Z,13.18
2023-03-05T17:31:24.290Z,13.68
2023-03-05T17:36:35.308Z,11.35
2023-03-05T17:41:46.304Z,18.77
2023-03-05T17:47:00.858Z,19.30
2023-03-05T17:52:12.583Z,17.00
2023-03-05T17:57:26.011Z,18.58
2023-03-05T18:02:41.361Z,10.38
2023-03-05T18:07:53.220Z,13.65
2023-03-05T18:13:04.579Z,14.05
2023-03-05T18:18:16.506Z,18.80
2023-03-05T18:23:28.419Z,18.95
2023-03-05T18:28:39.332Z,12.55
2023-03-05T18:33:53.060Z,14.25
2023-03-05T18:39:01.983Z,10.18
2023-03-05T18:44:11.562Z,12.80
2023-03-05T18:49:22.942Z,10.68
2023-03-05T18:54:34.592Z,11.55
2023-03-05T18:59:48.989Z,13.02
2023-03-05T19:05:13.715Z,11.95
2023-03-05T19:10:23.977Z,14.20
2023-03-05T19:15:35.725Z,12.75
2023-03-05T19:20:57.624Z,13.77
2023-03-05T19:26:10.915Z,12.10
2023-03-05T19:31:20.256Z,16.85
2023-03-05T19:36:37.537Z,15.13
2023-03-05T19:41:50.837Z,16.45
2023-03-05T19:47:02.352Z,19.10
2023-03-05T19:52:17.759Z,15.75
2023-03-05T19:57:27.181Z,17.50
2023-03-05T20:02:39.482Z,19.65
2023-03-05T20:07:54.796Z,16.85
2023-03-05T20:13:08.242Z,19.60
2023-03-05T20:18:19.940Z,22.90
2023-03-05T20:23:33.831Z,18.40
2023-03-05T20:28:46.264Z,25.55
2023-03-05T20:33:59.939Z,23.95
2023-03-05T20:39:14.274Z,22.88
2023-03-05T20:44:24.118Z,22.38
2023-03-05T20:49:33.285Z,28.52
2023-03-05T20:54:48.531Z,27.90
2023-03-05T21:05:13.648Z,29.42
2023-03-05T21:10:27.657Z,30.75
2023-03-05T21:15:37.833Z,30.80
2023-03-05T21:20:46.657Z,27.05
2023-03-05T21:25:58.709Z,26.63
2023-03-05T21:31:11.966Z,26.60
2023-03-05T21:36:21.159Z,29.80
2023-03-05T21:41:30.849Z,29.48
2023-03-05T21:46:38.875Z,25.45
2023-03-05T21:51:59.550Z,29.23
2023-03-05T21:57:09.623Z,28.25
2023-03-05T22:02:17.485Z,32.25
2023-03-05T22:07:23.834Z,27.38
2023-03-05T22:12:44.042Z,30.17
2023-03-05T22:17:50.734Z,29.33
2023-03-05T22:22:57.105Z,30.75
2023-03-05T22:28:06.275Z,28.75
2023-03-05T22:33:12.716Z,29.67
2023-03-05T22:38:19.598Z,29.70
2023-03-05T22:43:27.339Z,29.65
2023-03-05T22:48:33.784Z,36.35
2023-03-05T22:53:44.346Z,34.03
2023-03-05T22:58:52.714Z,37.85
2023-03-05T23:04:04.201Z,34.88
2023-03-05T23:09:11.013Z,31.45
2023-03-05T23:14:19.246Z,27.77
2023-03-05T23:19:26.449Z,27.40
2023-03-05T23:24:33.196Z,27.60
2023-03-05T23:29:54.802Z,31.83
2023-03-05T23:35:01.303Z,30.92
2023-03-05T23:40:14.513Z,25.98
2023-03-05T23:45:24.762Z,31.90
2023-03-05T23:50:34.702Z,30.95
2023-03-05T23:55:45.495Z,29.23
